This is the latest recevied weather packets stored in our database for station/object AA7F. If no packets are shown the sender has not sent any weather packets the latest 10 day(s).
| Time | Temp. | Humidity | Pressure | Rain* | Wind** | Luminosity | Snow |
|---|---|---|---|---|---|---|---|
| 1777604888 | 17.78° C | 35% | 1016.3 hPa | 0 mm | - | 0 W/m² | - |
| 1777604583 | 18.33° C | 36% | 1016.3 hPa | 0 mm | - | 0 W/m² | - |
| 1777604280 | 17.78° C | 36% | 1016.3 hPa | 0 mm | - | 1 W/m² | - |
| 1777603975 | 18.33° C | 35% | 1016 hPa | 0 mm | - | 3 W/m² | - |
| 1777603672 | 18.89° C | 35% | 1016.1 hPa | 0 mm | - | 4 W/m² | - |
| 1777603369 | 18.89° C | 34% | 1016.1 hPa | 0 mm | - | 7 W/m² | - |
| 1777603064 | 19.44° C | 35% | 1016 hPa | 0 mm | - | 11 W/m² | - |
| 1777602759 | 20° C | 35% | 1016.3 hPa | 0 mm | - | 14 W/m² | - |
| 1777602454 | 20° C | 33% | 1016.3 hPa | 0 mm | - | 16 W/m² | - |
| 1777602151 | 20° C | 33% | 1016.1 hPa | 0 mm | - | 20 W/m² | - |
| 1777601846 | 20.56° C | 33% | 1016.1 hPa | 0 mm | - | 23 W/m² | - |
| 1777601542 | 20.56° C | 33% | 1016.3 hPa | 0 mm | - | 25 W/m² | - |
| 1777600935 | 20.56° C | 37% | 1016.1 hPa | 0 mm | - | 29 W/m² | - |
| 1777600630 | 21.11° C | 36% | 1016 hPa | 0 mm | - | 37 W/m² | - |
| 1777584845 | 22.78° C | 33% | 1018.1 hPa | 0 mm | - | 623 W/m² | - |
| 1777584543 | 22.78° C | 31% | 1018.4 hPa | 0 mm | - | 628 W/m² | - |
| 1777584239 | 22.78° C | 40% | 1018.4 hPa | 0 mm | - | 634 W/m² | - |
| 1777583939 | 22.78° C | 38% | 1018.7 hPa | 0 mm | - | 639 W/m² | - |
| 1777583635 | 22.78° C | 34% | 1018.4 hPa | 0 mm | - | 645 W/m² | - |
| 1777583334 | 22.22° C | 36% | 1018.4 hPa | 0 mm | - | 643 W/m² | - |
| 1777583029 | 22.78° C | 29% | 1018.9 hPa | 0 mm | - | 652 W/m² | - |
| 1777582726 | 22.78° C | 33% | 1018.7 hPa | 0 mm | - | 648 W/m² | - |
| 1777582421 | 21.67° C | 37% | 1019 hPa | 0 mm | - | 645 W/m² | - |
| 1777581815 | 22.22° C | 38% | 1018.9 hPa | 0 mm | - | 654 W/m² | - |
| 1777580903 | 22.22° C | 38% | 1019 hPa | 0 mm | - | 669 W/m² | - |
* Rain latest hour (hover to see other rain measurements)
** Current wind speed in m/s (hover to see current wind gust speed)